Airfield :
LOGIN :

Register | Disclaimer

   EN    FR    IT 

 










Legend :    VFR   Marginal VFR   IFR   Intensive IFR   Very Intensive IFR
Visi :
Ceiling :
>= 8 km
>= 3000ft
5 to 8 km
1000 to 3000 ft
1500m to 5 km
500 to 1000 ft
800 to 1500m
200 to 500 ft
< 800m
< 200 ft
Symbols :   Thunderstorms  Fog  Heavy snow  Heavy precipitations  Wind > 20 kt
SIGMETs :     Misc.  Thunderstorms  Icing  Turbulence  Mountain Waves  Volcanic Ashes






- Airport Elevation : 46 ft
- IATA code : SNN


EINN - Shannon

CURRENT METAR :
  • 150730Z 34008KT 9999 FEW015 02/00 Q1018 NOSIG

EXPIRED METARs :
  • 150700Z 33009KT 9999 FEW015 03/01 Q1018 NOSIG
  • 150630Z 36009KT 9999 FEW015 03/01 Q1018 NOSIG
  • 150600Z 34006KT 9999 FEW015 03/00 Q1017 NOSIG
  • 150530Z 34008KT 9999 FEW015 03/00 Q1017 NOSIG
  • 150500Z 34013KT 9999 FEW015 03/01 Q1017 NOSIG

TAF TAF EINN
Valid from the 15 at 06:00 until the 16 at 06:00 UTC


150500Z 1506/1606 35013KT 9999 FEW015
BECMG 1522/1601 VRB03KT
TEMPO 1522/1606 3000 BR SCT010
PROB40
TEMPO 1602/1606 0200 FG BKN001



MET'MAP, your aeronautical weather chart ! - Copyright ORBIFLY December 2007 - Disclaimer

ORBIFLY MET'MAP TEAM :

Programming & Development : Alexandra Zaïnal
Concept & Development : Baudouin d'Aumeries
Co-Development & Prog : Marc-Olivier Méhu
Technical & hardware support : Manuel Goepfert

Contact : metmap@orbifly.com




SOURCES & CREDITS :

   NOAA